SWA2365 KBWI-KPWM
Flight info
| Callsign | SWA2365 |
|---|---|
| Flight time | 1h 6m |
| Altitude | 35000 |
| Route | DUKPN1 BROSS Q419 RBV Q22 LLUND BDR SCOGS3 |
| Aircraft | B737/M-SDE2E3FGHIRWXY/LB1 |
Departure
| Time | 2026-04-25 21:38 |
|---|---|
| Airport | Baltimore/Washington International Thurgood Marshall Airport (KBWI) |
Arrival
| Time | 2026-04-25 22:44 |
|---|---|
| Airport | Portland International Jetport (KPWM) |
| Time | Latitude | Longitude | Altitude | Speed | Heading |
|---|---|---|---|---|---|
| 2026-04-25 21:23 | 39.18036 | -76.67347 | 155 ft | 0 kts | 59° |
| 2026-04-25 21:33 | 39.18028 | -76.67364 | 154 ft | 4 kts | 56° |
| 2026-04-25 21:33 | 39.18011 | -76.67391 | 154 ft | 4 kts | 36° |
| 2026-04-25 21:33 | 39.17989 | -76.67404 | 153 ft | 4 kts | 354° |
| 2026-04-25 21:33 | 39.17976 | -76.67399 | 152 ft | 1 kts | 324° |
| 2026-04-25 21:35 | 39.17981 | -76.67404 | 152 ft | 6 kts | 324° |
| 2026-04-25 21:35 | 39.17994 | -76.67469 | 150 ft | 12 kts | 246° |
| 2026-04-25 21:36 | 39.18059 | -76.67585 | 146 ft | 25 kts | 325° |
| 2026-04-25 21:36 | 39.18217 | -76.67729 | 145 ft | 28 kts | 324° |
| 2026-04-25 21:36 | 39.18372 | -76.67871 | 146 ft | 26 kts | 324° |
| 2026-04-25 21:36 | 39.18513 | -76.68005 | 147 ft | 25 kts | 323° |
| 2026-04-25 21:37 | 39.18572 | -76.68096 | 147 ft | 10 kts | 273° |
| 2026-04-25 21:37 | 39.18552 | -76.68149 | 145 ft | 10 kts | 222° |
| 2026-04-25 21:37 | 39.18382 | -76.68057 | 145 ft | 54 kts | 144° |
| 2026-04-25 21:37 | 39.17874 | -76.67586 | 144 ft | 124 kts | 143° |
| 2026-04-25 21:38 | 39.17029 | -76.66822 | 318 ft | 163 kts | 139° |
| 2026-04-25 21:38 | 39.16100 | -76.65971 | 1173 ft | 160 kts | 131° |
| 2026-04-25 21:38 | 39.15564 | -76.64797 | 2098 ft | 157 kts | 112° |
| 2026-04-25 21:38 | 39.15093 | -76.63371 | 2496 ft | 190 kts | 116° |
| 2026-04-25 21:39 | 39.14512 | -76.61672 | 2739 ft | 226 kts | 116° |
| 2026-04-25 21:39 | 39.13838 | -76.59693 | 3203 ft | 253 kts | 117° |
| 2026-04-25 21:39 | 39.13107 | -76.57568 | 4025 ft | 263 kts | 117° |
| 2026-04-25 21:39 | 39.12355 | -76.55398 | 4943 ft | 270 kts | 117° |
| 2026-04-25 21:40 | 39.11566 | -76.53142 | 5744 ft | 280 kts | 116° |
| 2026-04-25 21:40 | 39.10755 | -76.50835 | 6629 ft | 288 kts | 116° |
| 2026-04-25 21:40 | 39.09922 | -76.48470 | 7595 ft | 290 kts | 117° |
| 2026-04-25 21:40 | 39.09299 | -76.45964 | 8466 ft | 301 kts | 95° |
| 2026-04-25 21:41 | 39.09568 | -76.43285 | 9355 ft | 308 kts | 73° |
| 2026-04-25 21:41 | 39.10261 | -76.40641 | 10167 ft | 315 kts | 70° |
| 2026-04-25 21:41 | 39.11035 | -76.37903 | 10599 ft | 338 kts | 69° |
| 2026-04-25 21:41 | 39.11865 | -76.34969 | 11009 ft | 357 kts | 70° |
| 2026-04-25 21:42 | 39.12710 | -76.31925 | 11773 ft | 363 kts | 70° |
| 2026-04-25 21:42 | 39.13548 | -76.28845 | 12651 ft | 366 kts | 70° |
| 2026-04-25 21:42 | 39.14388 | -76.25726 | 13522 ft | 371 kts | 69° |
| 2026-04-25 21:42 | 39.15219 | -76.22554 | 14316 ft | 376 kts | 73° |
| 2026-04-25 21:43 | 39.15734 | -76.19226 | 15119 ft | 382 kts | 81° |
| 2026-04-25 21:43 | 39.16055 | -76.15815 | 15953 ft | 385 kts | 82° |
| 2026-04-25 21:43 | 39.16380 | -76.12368 | 16777 ft | 389 kts | 82° |
| 2026-04-25 21:43 | 39.16744 | -76.08895 | 17602 ft | 393 kts | 81° |
| 2026-04-25 21:44 | 39.17137 | -76.05389 | 18364 ft | 398 kts | 80° |
| 2026-04-25 21:44 | 39.17544 | -76.01836 | 19032 ft | 403 kts | 80° |
| 2026-04-25 21:44 | 39.18363 | -75.94661 | 20432 ft | 411 kts | 81° |
| 2026-04-25 21:45 | 39.18826 | -75.91007 | 21112 ft | 415 kts | 73° |
| 2026-04-25 21:45 | 39.19118 | -75.89806 | 21316 ft | 415 kts | 66° |
| 2026-04-25 21:45 | 39.21875 | -75.84844 | 22424 ft | 412 kts | 38° |
| 2026-04-25 21:45 | 39.24061 | -75.82431 | 23080 ft | 416 kts | 37° |
| 2026-04-25 21:46 | 39.26314 | -75.80041 | 23654 ft | 421 kts | 36° |
| 2026-04-25 21:46 | 39.28592 | -75.77629 | 24136 ft | 427 kts | 36° |
| 2026-04-25 21:46 | 39.30886 | -75.75170 | 24652 ft | 431 kts | 36° |
| 2026-04-25 21:46 | 39.33195 | -75.72662 | 25154 ft | 436 kts | 36° |
| 2026-04-25 21:47 | 39.35517 | -75.70116 | 25639 ft | 440 kts | 37° |
| 2026-04-25 21:47 | 39.37862 | -75.67534 | 26129 ft | 446 kts | 37° |
| 2026-04-25 21:47 | 39.40237 | -75.64915 | 26551 ft | 451 kts | 37° |
| 2026-04-25 21:47 | 39.42637 | -75.62268 | 27019 ft | 456 kts | 36° |
| 2026-04-25 21:48 | 39.45062 | -75.59596 | 27493 ft | 459 kts | 36° |
| 2026-04-25 21:48 | 39.47507 | -75.56909 | 27938 ft | 464 kts | 36° |
| 2026-04-25 21:48 | 39.49978 | -75.54197 | 28368 ft | 468 kts | 36° |
| 2026-04-25 21:48 | 39.52472 | -75.51456 | 28792 ft | 472 kts | 36° |
| 2026-04-25 21:49 | 39.54988 | -75.48684 | 29212 ft | 477 kts | 36° |
| 2026-04-25 21:49 | 39.57526 | -75.45885 | 29607 ft | 481 kts | 36° |
| 2026-04-25 21:49 | 39.60085 | -75.43060 | 29971 ft | 486 kts | 36° |
| 2026-04-25 21:49 | 39.62670 | -75.40203 | 30367 ft | 488 kts | 36° |
| 2026-04-25 21:50 | 39.65259 | -75.37342 | 30816 ft | 489 kts | 36° |
| 2026-04-25 21:50 | 39.67838 | -75.34489 | 31343 ft | 486 kts | 36° |
| 2026-04-25 21:50 | 39.70400 | -75.31652 | 31942 ft | 482 kts | 35° |
| 2026-04-25 21:50 | 39.72087 | -75.29783 | 32322 ft | 480 kts | 35° |
| 2026-04-25 21:51 | 39.75478 | -75.26024 | 32991 ft | 478 kts | 35° |
| 2026-04-25 21:51 | 39.78006 | -75.23218 | 33431 ft | 477 kts | 35° |
| 2026-04-25 21:51 | 39.80402 | -75.20298 | 33881 ft | 480 kts | 42° |
| 2026-04-25 21:51 | 39.82624 | -75.17062 | 34322 ft | 480 kts | 45° |
| 2026-04-25 21:52 | 39.84778 | -75.13751 | 34741 ft | 478 kts | 45° |
| 2026-04-25 21:52 | 39.86917 | -75.10439 | 35044 ft | 479 kts | 45° |
| 2026-04-25 21:52 | 39.89090 | -75.07118 | 35021 ft | 484 kts | 44° |
| 2026-04-25 21:53 | 39.93486 | -75.00512 | 35049 ft | 479 kts | 44° |
| 2026-04-25 21:53 | 39.97789 | -74.93890 | 35044 ft | 481 kts | 49° |
| 2026-04-25 21:54 | 40.01539 | -74.86637 | 35052 ft | 483 kts | 53° |
| 2026-04-25 21:54 | 40.05176 | -74.79251 | 35049 ft | 484 kts | 53° |
| 2026-04-25 21:55 | 40.08864 | -74.71906 | 35057 ft | 484 kts | 52° |
| 2026-04-25 21:55 | 40.12590 | -74.64562 | 35060 ft | 485 kts | 52° |
| 2026-04-25 21:56 | 40.16317 | -74.57203 | 35059 ft | 485 kts | 52° |
| 2026-04-25 21:56 | 40.19448 | -74.51136 | 35057 ft | 483 kts | 47° |
| 2026-04-25 21:57 | 40.24148 | -74.45051 | 35093 ft | 472 kts | 33° |
| 2026-04-25 21:57 | 40.29282 | -74.39711 | 35090 ft | 472 kts | 32° |
| 2026-04-25 21:58 | 40.34410 | -74.34334 | 35083 ft | 472 kts | 33° |
| 2026-04-25 21:58 | 40.39508 | -74.28890 | 35085 ft | 473 kts | 33° |
| 2026-04-25 21:59 | 40.44591 | -74.23428 | 35082 ft | 472 kts | 33° |
| 2026-04-25 21:59 | 40.49673 | -74.17959 | 35086 ft | 472 kts | 33° |
| 2026-04-25 22:00 | 40.57292 | -74.09749 | 35074 ft | 472 kts | 33° |
| 2026-04-25 22:00 | 40.62360 | -74.04282 | 35102 ft | 471 kts | 33° |
| 2026-04-25 22:01 | 40.67428 | -73.98804 | 35119 ft | 471 kts | 33° |
| 2026-04-25 22:01 | 40.71631 | -73.94252 | 35091 ft | 470 kts | 33° |
| 2026-04-25 22:02 | 40.77527 | -73.87852 | 35078 ft | 469 kts | 33° |
| 2026-04-25 22:02 | 40.82551 | -73.82388 | 35087 ft | 467 kts | 33° |
| 2026-04-25 22:03 | 40.87226 | -73.76351 | 35090 ft | 477 kts | 48° |
| 2026-04-25 22:03 | 40.90775 | -73.68869 | 35092 ft | 482 kts | 55° |
| 2026-04-25 22:04 | 40.94143 | -73.61215 | 35095 ft | 481 kts | 55° |
| 2026-04-25 22:04 | 40.97544 | -73.53600 | 35079 ft | 480 kts | 54° |
| 2026-04-25 22:05 | 41.00970 | -73.46023 | 35113 ft | 479 kts | 54° |
| 2026-04-25 22:05 | 41.04396 | -73.38451 | 35129 ft | 479 kts | 54° |
| 2026-04-25 22:06 | 41.07819 | -73.30862 | 35124 ft | 479 kts | 54° |
| 2026-04-25 22:06 | 41.11230 | -73.23285 | 35120 ft | 478 kts | 54° |
| 2026-04-25 22:07 | 41.14054 | -73.16983 | 35118 ft | 478 kts | 54° |
| 2026-04-25 22:07 | 41.18027 | -73.08205 | 35130 ft | 477 kts | 53° |
| 2026-04-25 22:08 | 41.21545 | -73.00744 | 35126 ft | 476 kts | 52° |
| 2026-04-25 22:08 | 41.25075 | -72.93290 | 35120 ft | 477 kts | 52° |
| 2026-04-25 22:09 | 41.28584 | -72.85823 | 35121 ft | 477 kts | 52° |
| 2026-04-25 22:09 | 41.32083 | -72.78335 | 35137 ft | 477 kts | 53° |
| 2026-04-25 22:10 | 41.35580 | -72.70827 | 35130 ft | 477 kts | 53° |
| 2026-04-25 22:10 | 41.39076 | -72.63303 | 35121 ft | 478 kts | 53° |
| 2026-04-25 22:11 | 41.42569 | -72.55765 | 35126 ft | 478 kts | 53° |
| 2026-04-25 22:11 | 41.46059 | -72.48218 | 35122 ft | 478 kts | 53° |
| 2026-04-25 22:12 | 41.49541 | -72.40670 | 35109 ft | 478 kts | 53° |
| 2026-04-25 22:12 | 41.52434 | -72.34386 | 35105 ft | 478 kts | 53° |
| 2026-04-25 22:13 | 41.56493 | -72.25545 | 35111 ft | 478 kts | 53° |
| 2026-04-25 22:13 | 41.59958 | -72.17971 | 35097 ft | 478 kts | 52° |
| 2026-04-25 22:14 | 41.63420 | -72.10392 | 35103 ft | 478 kts | 52° |
| 2026-04-25 22:14 | 41.66876 | -72.02804 | 35095 ft | 478 kts | 52° |
| 2026-04-25 22:15 | 41.70300 | -71.95266 | 35099 ft | 477 kts | 53° |
| 2026-04-25 22:16 | 41.75463 | -71.83864 | 35105 ft | 477 kts | 52° |
| 2026-04-25 22:16 | 41.78899 | -71.76252 | 35121 ft | 477 kts | 52° |
| 2026-04-25 22:17 | 41.82328 | -71.68637 | 35110 ft | 477 kts | 52° |
| 2026-04-25 22:17 | 41.85680 | -71.60924 | 35106 ft | 480 kts | 57° |
| 2026-04-25 22:18 | 41.88579 | -71.52831 | 35130 ft | 481 kts | 59° |
| 2026-04-25 22:18 | 41.91383 | -71.44699 | 35134 ft | 479 kts | 58° |
| 2026-04-25 22:19 | 41.94228 | -71.36650 | 35114 ft | 476 kts | 58° |
| 2026-04-25 22:19 | 41.97092 | -71.28643 | 35107 ft | 475 kts | 57° |
| 2026-04-25 22:20 | 41.99952 | -71.20641 | 35123 ft | 474 kts | 58° |
| 2026-04-25 22:20 | 42.02800 | -71.12637 | 34977 ft | 476 kts | 58° |
| 2026-04-25 22:20 | 42.04233 | -71.08602 | 34374 ft | 480 kts | 58° |
| 2026-04-25 22:21 | 42.05670 | -71.04544 | 33778 ft | 479 kts | 58° |
| 2026-04-25 22:21 | 42.07093 | -71.00515 | 33285 ft | 474 kts | 58° |
| 2026-04-25 22:21 | 42.08602 | -70.96686 | 32767 ft | 461 kts | 46° |
| 2026-04-25 22:21 | 42.10732 | -70.93638 | 32381 ft | 436 kts | 30° |
| 2026-04-25 22:22 | 42.13214 | -70.91458 | 31837 ft | 418 kts | 16° |
| 2026-04-25 22:22 | 42.15875 | -70.90069 | 31400 ft | 406 kts | 9° |
| 2026-04-25 22:22 | 42.18538 | -70.88863 | 30926 ft | 402 kts | 9° |
| 2026-04-25 22:22 | 42.21228 | -70.87671 | 30499 ft | 400 kts | 8° |
| 2026-04-25 22:23 | 42.23855 | -70.86494 | 30011 ft | 397 kts | 9° |
| 2026-04-25 22:23 | 42.26434 | -70.85319 | 29506 ft | 395 kts | 9° |
| 2026-04-25 22:23 | 42.29015 | -70.84124 | 29019 ft | 390 kts | 9° |
| 2026-04-25 22:23 | 42.31568 | -70.82933 | 28558 ft | 386 kts | 10° |
| 2026-04-25 22:24 | 42.34092 | -70.81752 | 28098 ft | 382 kts | 10° |
| 2026-04-25 22:24 | 42.36590 | -70.80582 | 27622 ft | 378 kts | 10° |
| 2026-04-25 22:24 | 42.39066 | -70.79423 | 27163 ft | 374 kts | 10° |
| 2026-04-25 22:24 | 42.41516 | -70.78274 | 26726 ft | 371 kts | 10° |
| 2026-04-25 22:25 | 42.43943 | -70.77131 | 26282 ft | 368 kts | 11° |
| 2026-04-25 22:25 | 42.46315 | -70.75894 | 25969 ft | 363 kts | 13° |
| 2026-04-25 22:25 | 42.48648 | -70.74599 | 25525 ft | 362 kts | 14° |
| 2026-04-25 22:25 | 42.50963 | -70.73297 | 25099 ft | 359 kts | 14° |
| 2026-04-25 22:26 | 42.53261 | -70.72011 | 24665 ft | 356 kts | 14° |
| 2026-04-25 22:26 | 42.55544 | -70.70743 | 24231 ft | 354 kts | 14° |
| 2026-04-25 22:26 | 42.57826 | -70.69482 | 23805 ft | 352 kts | 14° |
| 2026-04-25 22:26 | 42.60092 | -70.68234 | 23277 ft | 351 kts | 14° |
| 2026-04-25 22:27 | 42.62351 | -70.66990 | 22802 ft | 348 kts | 14° |
| 2026-04-25 22:27 | 42.64585 | -70.65758 | 22349 ft | 345 kts | 14° |
| 2026-04-25 22:27 | 42.66796 | -70.64537 | 21901 ft | 342 kts | 14° |
| 2026-04-25 22:27 | 42.68986 | -70.63292 | 21512 ft | 339 kts | 17° |
| 2026-04-25 22:28 | 42.71121 | -70.61968 | 21093 ft | 336 kts | 18° |
| 2026-04-25 22:28 | 42.73230 | -70.60625 | 20663 ft | 334 kts | 18° |
| 2026-04-25 22:28 | 42.75326 | -70.59279 | 20249 ft | 332 kts | 18° |
| 2026-04-25 22:28 | 42.77411 | -70.57945 | 19813 ft | 330 kts | 18° |
| 2026-04-25 22:29 | 42.79486 | -70.56627 | 19384 ft | 328 kts | 19° |
| 2026-04-25 22:29 | 42.81551 | -70.55320 | 18953 ft | 327 kts | 19° |
| 2026-04-25 22:29 | 42.83616 | -70.54017 | 18528 ft | 326 kts | 19° |
| 2026-04-25 22:30 | 42.87700 | -70.51442 | 17499 ft | 325 kts | 19° |
| 2026-04-25 22:30 | 42.89750 | -70.50148 | 17044 ft | 323 kts | 20° |
| 2026-04-25 22:30 | 42.91784 | -70.48862 | 16594 ft | 321 kts | 20° |
| 2026-04-25 22:30 | 42.93148 | -70.48001 | 16304 ft | 319 kts | 20° |
| 2026-04-25 22:31 | 42.95802 | -70.46329 | 15736 ft | 316 kts | 20° |
| 2026-04-25 22:31 | 42.97790 | -70.45073 | 15311 ft | 314 kts | 21° |
| 2026-04-25 22:31 | 42.99765 | -70.43821 | 14888 ft | 312 kts | 21° |
| 2026-04-25 22:31 | 43.01726 | -70.42578 | 14465 ft | 310 kts | 21° |
| 2026-04-25 22:32 | 43.03627 | -70.41176 | 14051 ft | 311 kts | 28° |
| 2026-04-25 22:32 | 43.05446 | -70.39585 | 13601 ft | 310 kts | 30° |
| 2026-04-25 22:32 | 43.07240 | -70.37969 | 13139 ft | 308 kts | 30° |
| 2026-04-25 22:32 | 43.09028 | -70.36372 | 12701 ft | 306 kts | 30° |
| 2026-04-25 22:33 | 43.10810 | -70.34801 | 12269 ft | 304 kts | 30° |
| 2026-04-25 22:33 | 43.12587 | -70.33251 | 11888 ft | 300 kts | 30° |
| 2026-04-25 22:33 | 43.14305 | -70.31755 | 11814 ft | 286 kts | 30° |
| 2026-04-25 22:33 | 43.15965 | -70.30312 | 11559 ft | 280 kts | 30° |
| 2026-04-25 22:34 | 43.17599 | -70.28884 | 11195 ft | 279 kts | 30° |
| 2026-04-25 22:34 | 43.19229 | -70.27454 | 10822 ft | 278 kts | 31° |
| 2026-04-25 22:34 | 43.20851 | -70.26027 | 10466 ft | 276 kts | 31° |
| 2026-04-25 22:34 | 43.22463 | -70.24609 | 10126 ft | 274 kts | 31° |
| 2026-04-25 22:35 | 43.24070 | -70.23196 | 9761 ft | 273 kts | 31° |
| 2026-04-25 22:35 | 43.25661 | -70.21802 | 9415 ft | 270 kts | 31° |
| 2026-04-25 22:35 | 43.27240 | -70.20441 | 9004 ft | 266 kts | 31° |
| 2026-04-25 22:35 | 43.28799 | -70.19100 | 8468 ft | 264 kts | 30° |
| 2026-04-25 22:36 | 43.30347 | -70.17766 | 7983 ft | 260 kts | 31° |
| 2026-04-25 22:36 | 43.31838 | -70.16478 | 7570 ft | 254 kts | 31° |
| 2026-04-25 22:36 | 43.33436 | -70.15466 | 6979 ft | 255 kts | 10° |
| 2026-04-25 22:36 | 43.35193 | -70.15419 | 6552 ft | 251 kts | 357° |
| 2026-04-25 22:37 | 43.36938 | -70.15623 | 5979 ft | 254 kts | 356° |
| 2026-04-25 22:37 | 43.38698 | -70.15861 | 5621 ft | 253 kts | 355° |
| 2026-04-25 22:37 | 43.40430 | -70.16066 | 5346 ft | 248 kts | 359° |
| 2026-04-25 22:37 | 43.42157 | -70.16136 | 4968 ft | 248 kts | 0° |
| 2026-04-25 22:38 | 43.43870 | -70.16183 | 4690 ft | 244 kts | 0° |
| 2026-04-25 22:38 | 43.45562 | -70.16211 | 4354 ft | 242 kts | 0° |
| 2026-04-25 22:38 | 43.47254 | -70.16215 | 3988 ft | 242 kts | 0° |
| 2026-04-25 22:38 | 43.48932 | -70.16203 | 3637 ft | 242 kts | 360° |
| 2026-04-25 22:39 | 43.50617 | -70.16174 | 3243 ft | 243 kts | 360° |
| 2026-04-25 22:39 | 43.52293 | -70.16131 | 2980 ft | 238 kts | 0° |
| 2026-04-25 22:39 | 43.53959 | -70.16082 | 2559 ft | 241 kts | 359° |
| 2026-04-25 22:39 | 43.55635 | -70.16164 | 2172 ft | 242 kts | 355° |
| 2026-04-25 22:40 | 43.57313 | -70.16447 | 2029 ft | 244 kts | 347° |
| 2026-04-25 22:40 | 43.58982 | -70.16961 | 2006 ft | 245 kts | 346° |
| 2026-04-25 22:40 | 43.60599 | -70.17486 | 1980 ft | 232 kts | 345° |
| 2026-04-25 22:40 | 43.62118 | -70.18002 | 1927 ft | 219 kts | 342° |
| 2026-04-25 22:41 | 43.63494 | -70.18676 | 1884 ft | 202 kts | 335° |
| 2026-04-25 22:41 | 43.64680 | -70.19511 | 1748 ft | 183 kts | 326° |
| 2026-04-25 22:41 | 43.65576 | -70.20575 | 1637 ft | 158 kts | 306° |
| 2026-04-25 22:41 | 43.66040 | -70.21843 | 1540 ft | 142 kts | 278° |
| 2026-04-25 22:42 | 43.65957 | -70.23158 | 1341 ft | 136 kts | 251° |
| 2026-04-25 22:42 | 43.65465 | -70.24187 | 1058 ft | 124 kts | 214° |
| 2026-04-25 22:42 | 43.64799 | -70.24894 | 802 ft | 119 kts | 225° |
| 2026-04-25 22:42 | 43.64344 | -70.25900 | 648 ft | 131 kts | 246° |
| 2026-04-25 22:43 | 43.64221 | -70.27161 | 482 ft | 134 kts | 271° |
| 2026-04-25 22:43 | 43.64293 | -70.28009 | 362 ft | 135 kts | 273° |
| 2026-04-25 22:43 | 43.64368 | -70.29284 | 179 ft | 132 kts | 270° |
| 2026-04-25 22:43 | 43.64449 | -70.30518 | 60 ft | 121 kts | 270° |
| 2026-04-25 22:44 | 43.64508 | -70.31445 | 82 ft | 67 kts | 276° |
| 2026-04-25 22:44 | 43.64540 | -70.31921 | 87 ft | 40 kts | 275° |
| 2026-04-25 22:44 | 43.64573 | -70.32087 | 95 ft | 10 kts | 344° |
| 2026-04-25 22:44 | 43.64640 | -70.32074 | 90 ft | 10 kts | 30° |
| 2026-04-25 22:45 | 43.64657 | -70.31988 | 87 ft | 11 kts | 95° |
| 2026-04-25 22:45 | 43.64648 | -70.31872 | 83 ft | 13 kts | 95° |
| 2026-04-25 22:45 | 43.64639 | -70.31749 | 85 ft | 13 kts | 95° |
| 2026-04-25 22:45 | 43.64631 | -70.31629 | 77 ft | 12 kts | 96° |
| 2026-04-25 22:46 | 43.64623 | -70.31512 | 80 ft | 12 kts | 95° |
| 2026-04-25 22:46 | 43.64616 | -70.31399 | 77 ft | 10 kts | 93° |
| 2026-04-25 22:46 | 43.64660 | -70.31336 | 73 ft | 10 kts | 0° |
| 2026-04-25 22:46 | 43.64715 | -70.31381 | 73 ft | 5 kts | 321° |
| 2026-04-25 22:47 | 43.64744 | -70.31356 | 82 ft | 6 kts | 50° |
| 2026-04-25 22:47 | 43.64763 | -70.31324 | 76 ft | 1 kts | 50° |
| 2026-04-25 22:47 | 43.64764 | -70.31323 | 76 ft | 0 kts | 50° |